createdAt,value
2018-10-15T00:00:58.362Z,27.70
2018-10-15T00:01:58.335Z,29.50
2018-10-15T00:02:58.310Z,29.40
2018-10-15T00:03:58.281Z,27.50
2018-10-15T00:04:58.252Z,29.40
2018-10-15T00:05:58.228Z,29.40
2018-10-15T00:06:58.197Z,26.60
2018-10-15T00:07:58.168Z,27.90
2018-10-15T00:08:58.143Z,27.10
2018-10-15T00:09:58.114Z,31.90
2018-10-15T00:10:58.086Z,28.60
2018-10-15T00:11:58.057Z,29.40
2018-10-15T00:12:58.031Z,30.10
2018-10-15T00:13:58.004Z,30.30
2018-10-15T00:14:57.976Z,27.60
2018-10-15T00:15:57.946Z,28.90
2018-10-15T00:16:57.918Z,30.90
2018-10-15T00:17:57.892Z,32.00
2018-10-15T00:18:57.864Z,33.20
2018-10-15T00:19:57.836Z,28.30
2018-10-15T00:20:57.808Z,33.50
2018-10-15T00:21:57.782Z,29.20
2018-10-15T00:22:57.753Z,27.70
2018-10-15T00:23:57.725Z,32.00
2018-10-15T00:24:57.697Z,31.80
2018-10-15T00:25:57.669Z,29.20
2018-10-15T00:26:57.643Z,29.70
2018-10-15T00:27:57.614Z,28.90
2018-10-15T00:28:57.587Z,31.00
2018-10-15T00:29:57.560Z,30.60
2018-10-15T00:30:57.534Z,30.80
2018-10-15T00:31:57.503Z,31.40
2018-10-15T00:32:57.475Z,33.40
2018-10-15T00:33:57.449Z,32.40
2018-10-15T00:34:57.420Z,34.80
2018-10-15T00:35:57.390Z,29.60
2018-10-15T00:36:57.364Z,30.80
2018-10-15T00:37:57.337Z,32.20
2018-10-15T00:38:57.310Z,33.70
2018-10-15T00:39:57.281Z,31.60
2018-10-15T00:40:57.252Z,38.50
2018-10-15T00:41:57.226Z,34.80
2018-10-15T00:42:57.198Z,33.70
2018-10-15T00:43:57.172Z,31.20
2018-10-15T00:44:57.141Z,28.90
2018-10-15T00:45:57.113Z,29.20
2018-10-15T00:46:57.086Z,33.20
2018-10-15T00:47:57.062Z,31.10
2018-10-15T00:48:57.030Z,32.30
2018-10-15T00:49:57.003Z,35.60
2018-10-15T00:50:56.974Z,35.90
2018-10-15T00:51:56.945Z,32.50
2018-10-15T00:52:56.917Z,30.60
2018-10-15T00:53:56.889Z,30.30
2018-10-15T00:54:56.862Z,30.50
2018-10-15T00:55:56.833Z,31.60
2018-10-15T00:56:56.805Z,37.10
2018-10-15T00:57:56.777Z,34.10
2018-10-15T00:58:56.751Z,31.90
2018-10-15T00:59:56.720Z,32.50
2018-10-15T01:00:56.692Z,32.70
2018-10-15T01:01:56.664Z,31.10
2018-10-15T01:02:56.638Z,34.80
2018-10-15T01:03:56.684Z,29.90
2018-10-15T01:04:56.579Z,30.00
2018-10-15T01:05:56.555Z,29.90
2018-10-15T01:06:56.526Z,29.10
2018-10-15T01:07:56.497Z,29.50
2018-10-15T01:08:56.470Z,31.60
2018-10-15T01:09:56.440Z,31.20
2018-10-15T01:10:56.415Z,27.60
2018-10-15T01:11:56.383Z,31.30
2018-10-15T01:12:56.360Z,30.10
2018-10-15T01:13:56.330Z,32.70
2018-10-15T01:14:56.302Z,31.20
2018-10-15T01:15:56.275Z,32.20
2018-10-15T01:16:56.245Z,29.40
2018-10-15T01:17:56.216Z,28.90
2018-10-15T01:18:56.188Z,31.80
2018-10-15T01:19:56.159Z,31.10
2018-10-15T01:20:56.131Z,30.20
2018-10-15T01:21:56.103Z,34.30
2018-10-15T01:22:56.076Z,28.40
2018-10-15T01:23:56.048Z,28.60
2018-10-15T01:24:56.018Z,29.50
2018-10-15T01:25:55.992Z,29.70
2018-10-15T01:26:55.963Z,32.50
2018-10-15T01:27:55.934Z,31.60
2018-10-15T01:28:55.905Z,30.20
2018-10-15T01:29:55.879Z,32.60
2018-10-15T01:30:55.852Z,30.20
2018-10-15T01:31:55.822Z,32.60
2018-10-15T01:32:55.794Z,30.70
2018-10-15T01:33:55.766Z,31.20
2018-10-15T01:34:55.738Z,28.80
2018-10-15T01:35:55.712Z,31.70
2018-10-15T01:36:55.681Z,33.70
2018-10-15T01:37:55.654Z,30.60
2018-10-15T01:38:55.624Z,31.90
2018-10-15T01:39:55.597Z,33.20
2018-10-15T01:40:55.569Z,33.50
2018-10-15T01:41:55.539Z,31.30
2018-10-15T01:42:55.511Z,33.80
2018-10-15T01:43:55.484Z,31.50
2018-10-15T01:44:55.455Z,31.30
2018-10-15T01:45:55.428Z,36.70
2018-10-15T01:46:55.401Z,38.40
2018-10-15T01:47:55.370Z,45.00
2018-10-15T01:48:55.342Z,44.90
2018-10-15T01:49:55.316Z,38.60
2018-10-15T01:50:55.285Z,39.90
2018-10-15T01:51:55.258Z,46.00
2018-10-15T01:52:55.228Z,40.70
2018-10-15T01:53:55.202Z,41.00
2018-10-15T01:54:55.173Z,34.20
2018-10-15T01:55:55.145Z,34.80
2018-10-15T01:56:55.115Z,31.60
2018-10-15T01:57:55.088Z,34.40
2018-10-15T01:58:55.060Z,35.50
2018-10-15T01:59:55.030Z,34.20
2018-10-15T02:00:55.002Z,32.10
2018-10-15T02:01:54.975Z,33.40
2018-10-15T02:02:54.946Z,31.60
2018-10-15T02:03:54.918Z,33.10
2018-10-15T02:04:54.890Z,30.90
2018-10-15T02:05:54.861Z,34.30
2018-10-15T02:06:54.834Z,41.30
2018-10-15T02:07:54.804Z,33.90
2018-10-15T02:08:54.776Z,35.00
2018-10-15T02:09:54.747Z,30.60
2018-10-15T02:10:54.720Z,31.00
2018-10-15T02:11:54.689Z,31.40
2018-10-15T02:12:54.662Z,33.70
2018-10-15T02:13:54.633Z,33.60
2018-10-15T02:14:54.605Z,32.30
2018-10-15T02:15:54.577Z,32.50
2018-10-15T02:16:54.549Z,34.20
2018-10-15T02:17:54.520Z,33.00
2018-10-15T02:18:54.493Z,32.10
2018-10-15T02:19:54.464Z,31.10
2018-10-15T02:20:54.434Z,31.90
2018-10-15T02:21:54.407Z,31.60
2018-10-15T02:22:54.379Z,32.50
2018-10-15T02:23:54.350Z,31.50
2018-10-15T02:24:54.320Z,30.20
2018-10-15T02:25:54.293Z,29.90
2018-10-15T02:26:54.263Z,30.60
2018-10-15T02:27:54.233Z,30.40
2018-10-15T02:28:54.207Z,31.00
2018-10-15T02:29:54.178Z,32.40
2018-10-15T02:30:54.150Z,32.30
2018-10-15T02:31:54.120Z,29.50
2018-10-15T02:32:54.092Z,33.50
2018-10-15T02:33:54.065Z,31.30
2018-10-15T02:34:54.037Z,31.80
2018-10-15T02:35:54.008Z,30.50
2018-10-15T02:36:53.979Z,30.40
2018-10-15T02:37:53.950Z,32.00
2018-10-15T02:38:53.923Z,30.30
2018-10-15T02:39:53.893Z,35.60
2018-10-15T02:40:53.865Z,32.90
2018-10-15T02:41:53.837Z,29.80
2018-10-15T02:42:53.809Z,32.80
2018-10-15T02:43:53.778Z,31.70
2018-10-15T02:44:53.752Z,30.50
2018-10-15T02:45:53.722Z,30.40
2018-10-15T02:46:53.694Z,31.10
2018-10-15T02:47:53.664Z,31.40
2018-10-15T02:48:53.638Z,32.50
2018-10-15T02:49:53.609Z,31.00
2018-10-15T02:50:53.581Z,32.90
2018-10-15T02:51:53.558Z,31.10
2018-10-15T02:52:53.523Z,32.30
2018-10-15T02:53:53.495Z,31.70
2018-10-15T02:54:53.466Z,33.00
2018-10-15T02:55:53.436Z,34.00
2018-10-15T02:56:53.408Z,35.50
2018-10-15T02:57:53.381Z,41.90
2018-10-15T02:58:53.350Z,34.90
2018-10-15T02:59:53.321Z,36.60
2018-10-15T03:00:53.292Z,38.20
2018-10-15T03:01:53.264Z,35.30
2018-10-15T03:02:53.240Z,38.60
2018-10-15T03:03:53.209Z,37.30
2018-10-15T03:04:53.179Z,38.60
2018-10-15T03:05:53.155Z,36.00
2018-10-15T03:06:53.121Z,32.80
2018-10-15T03:07:53.093Z,36.20
2018-10-15T03:08:53.064Z,34.30
2018-10-15T03:09:53.036Z,34.30
2018-10-15T03:10:53.008Z,31.50
2018-10-15T03:11:52.979Z,35.20
2018-10-15T03:12:52.950Z,34.10
2018-10-15T03:13:52.921Z,32.70
2018-10-15T03:14:52.897Z,38.30
2018-10-15T03:15:52.864Z,42.40
2018-10-15T03:16:52.838Z,46.20
2018-10-15T03:17:52.807Z,41.70
2018-10-15T03:18:52.782Z,35.30
2018-10-15T03:19:52.793Z,40.40
2018-10-15T03:20:52.721Z,41.50
2018-10-15T03:21:52.693Z,40.60
2018-10-15T03:22:52.664Z,41.70
2018-10-15T03:23:52.634Z,37.80
2018-10-15T03:24:52.605Z,37.60
2018-10-15T03:25:52.581Z,32.90
2018-10-15T03:26:52.549Z,34.20
2018-10-15T03:27:52.519Z,35.70
2018-10-15T03:28:52.490Z,38.40
2018-10-15T03:29:52.462Z,39.40
2018-10-15T03:30:52.434Z,37.00
2018-10-15T03:31:52.405Z,33.30
2018-10-15T03:32:52.375Z,38.80
2018-10-15T03:33:52.348Z,36.50
2018-10-15T03:34:52.319Z,39.90
2018-10-15T03:35:52.289Z,38.00
2018-10-15T03:36:52.260Z,43.00
2018-10-15T03:37:52.232Z,44.60
2018-10-15T03:38:52.205Z,35.70
2018-10-15T03:39:52.175Z,33.20
2018-10-15T03:40:52.148Z,36.60
2018-10-15T03:41:52.117Z,33.60
2018-10-15T03:42:52.092Z,37.30
2018-10-15T03:43:52.058Z,39.00
2018-10-15T03:44:52.030Z,37.80
2018-10-15T03:45:52.001Z,41.20
2018-10-15T03:46:51.979Z,43.30
2018-10-15T03:47:51.944Z,42.70
2018-10-15T03:48:51.916Z,36.10
2018-10-15T03:49:51.889Z,42.80
2018-10-15T03:50:51.859Z,35.20
2018-10-15T03:51:51.828Z,41.10
2018-10-15T03:52:51.801Z,33.30
2018-10-15T03:53:51.771Z,32.00
2018-10-15T03:54:51.743Z,32.80
2018-10-15T03:55:51.714Z,35.00
2018-10-15T03:56:51.696Z,37.80
2018-10-15T03:57:51.656Z,40.10
2018-10-15T03:58:51.627Z,33.60
2018-10-15T03:59:51.601Z,35.90
2018-10-15T04:00:51.571Z,37.00
2018-10-15T04:01:51.542Z,40.50
2018-10-15T04:02:51.513Z,46.80
2018-10-15T04:03:51.499Z,43.70
2018-10-15T04:04:51.454Z,41.90
2018-10-15T04:05:51.427Z,41.70
2018-10-15T04:06:51.397Z,38.20
2018-10-15T04:07:51.368Z,41.30
2018-10-15T04:08:51.340Z,41.20
2018-10-15T04:09:51.309Z,41.00
2018-10-15T04:10:51.281Z,51.10
2018-10-15T04:11:51.252Z,52.40
2018-10-15T04:12:51.225Z,59.30
2018-10-15T04:13:51.194Z,57.90
2018-10-15T04:14:51.164Z,54.40
2018-10-15T04:15:51.136Z,45.40
2018-10-15T04:16:51.107Z,42.60
2018-10-15T04:17:51.078Z,39.10
2018-10-15T04:18:51.053Z,41.70
2018-10-15T04:19:51.020Z,39.50
2018-10-15T04:20:50.992Z,42.30
2018-10-15T04:21:50.965Z,45.60
2018-10-15T04:22:50.933Z,44.00
2018-10-15T04:23:50.904Z,38.60
2018-10-15T04:24:50.876Z,42.70
2018-10-15T04:25:50.847Z,40.50
2018-10-15T04:26:50.820Z,40.60
2018-10-15T04:27:50.788Z,43.20
2018-10-15T04:28:50.763Z,41.70
2018-10-15T04:29:50.730Z,40.50
2018-10-15T04:30:50.703Z,38.60
2018-10-15T04:31:50.672Z,40.30
2018-10-15T04:32:50.644Z,35.80
2018-10-15T04:33:50.616Z,38.00
2018-10-15T04:34:50.587Z,41.40
2018-10-15T04:35:50.557Z,38.00
2018-10-15T04:36:50.528Z,40.90
2018-10-15T04:37:50.592Z,38.20
2018-10-15T04:38:50.471Z,38.50
2018-10-15T04:39:50.439Z,39.60
2018-10-15T04:40:50.412Z,48.60
2018-10-15T04:41:50.384Z,42.10
2018-10-15T04:42:50.359Z,39.80
2018-10-15T04:43:50.325Z,35.60
2018-10-15T04:44:50.297Z,37.20
2018-10-15T04:45:50.267Z,35.60
2018-10-15T04:46:50.245Z,37.50
2018-10-15T04:47:50.208Z,41.80
2018-10-15T04:48:50.265Z,39.70
2018-10-15T04:49:50.177Z,40.50
2018-10-15T04:50:50.127Z,41.50
2018-10-15T04:51:50.094Z,44.50
2018-10-15T04:52:50.063Z,49.40
2018-10-15T04:53:50.035Z,51.60
2018-10-15T04:54:50.007Z,45.60
2018-10-15T04:55:49.976Z,47.80
2018-10-15T04:56:49.948Z,53.70
2018-10-15T04:57:49.927Z,44.10
2018-10-15T04:58:49.891Z,42.70
2018-10-15T04:59:49.860Z,44.80
2018-10-15T05:00:49.833Z,48.60
2018-10-15T05:01:49.803Z,43.60
2018-10-15T05:02:49.773Z,44.20
2018-10-15T05:03:49.744Z,52.40
2018-10-15T05:04:49.716Z,46.80
2018-10-15T05:05:49.686Z,40.50
2018-10-15T05:06:49.659Z,49.00
2018-10-15T05:07:49.630Z,46.70
2018-10-15T05:08:49.604Z,40.60
2018-10-15T05:09:49.571Z,38.90
2018-10-15T05:10:49.542Z,42.50
2018-10-15T05:11:49.513Z,46.20
2018-10-15T05:12:49.485Z,44.60
2018-10-15T05:13:49.457Z,53.40
2018-10-15T05:14:49.433Z,50.70
2018-10-15T05:15:49.396Z,49.80
2018-10-15T05:16:49.376Z,43.70
2018-10-15T05:17:49.339Z,47.90
2018-10-15T05:18:49.310Z,45.40
2018-10-15T05:19:49.280Z,57.00
2018-10-15T05:20:49.328Z,52.50
2018-10-15T05:21:49.222Z,53.10
2018-10-15T05:22:49.192Z,47.70
2018-10-15T05:23:49.164Z,44.90
2018-10-15T05:24:49.134Z,44.70
2018-10-15T05:25:49.105Z,49.90
2018-10-15T05:26:49.076Z,47.40
2018-10-15T05:27:49.045Z,51.70
2018-10-15T05:28:49.019Z,57.10
2018-10-15T05:29:48.988Z,48.80
2018-10-15T05:30:49.000Z,51.00
2018-10-15T05:31:48.929Z,50.40
2018-10-15T05:32:48.901Z,49.20
2018-10-15T05:33:48.872Z,51.50
2018-10-15T05:34:48.844Z,47.30
2018-10-15T05:35:48.812Z,48.80
2018-10-15T05:36:48.879Z,48.40
2018-10-15T05:37:48.754Z,43.80
2018-10-15T05:38:48.726Z,47.60
2018-10-15T05:39:48.695Z,46.60
2018-10-15T05:40:48.666Z,47.90
2018-10-15T05:41:48.638Z,40.00
2018-10-15T05:42:48.609Z,44.30
2018-10-15T05:43:48.578Z,47.70
2018-10-15T05:44:48.549Z,62.00
2018-10-15T05:45:48.521Z,50.50
2018-10-15T05:46:48.545Z,59.80
2018-10-15T05:47:48.466Z,64.40
2018-10-15T05:48:48.433Z,59.30
2018-10-15T05:49:48.403Z,53.80
2018-10-15T05:50:48.375Z,49.20
2018-10-15T05:51:48.344Z,45.90
2018-10-15T05:52:48.318Z,51.30
2018-10-15T05:53:48.287Z,53.70
2018-10-15T05:54:48.261Z,52.70
2018-10-15T05:55:48.228Z,43.40
2018-10-15T05:56:48.198Z,45.10
2018-10-15T05:57:48.170Z,44.30
2018-10-15T05:58:48.142Z,46.20
2018-10-15T05:59:48.112Z,49.90
2018-10-15T06:00:48.083Z,49.60
2018-10-15T06:01:48.054Z,44.00
2018-10-15T06:02:48.025Z,43.30
2018-10-15T06:03:47.996Z,44.00
2018-10-15T06:04:47.966Z,43.80
2018-10-15T06:05:47.935Z,46.70
2018-10-15T06:06:47.908Z,50.10
2018-10-15T06:07:47.876Z,44.80
2018-10-15T06:08:47.848Z,45.10
2018-10-15T06:09:47.821Z,43.70
2018-10-15T06:10:47.791Z,41.00
2018-10-15T06:11:47.761Z,51.40
2018-10-15T06:12:47.735Z,47.80
2018-10-15T06:13:47.702Z,46.90
2018-10-15T06:14:47.674Z,41.40
2018-10-15T06:15:47.644Z,38.70
2018-10-15T06:16:47.615Z,45.60
2018-10-15T06:17:47.586Z,48.70
2018-10-15T06:18:47.560Z,46.10
2018-10-15T06:19:47.527Z,50.70
2018-10-15T06:20:47.499Z,51.60
2018-10-15T06:21:47.475Z,43.60
2018-10-15T06:22:47.573Z,41.10
2018-10-15T06:23:47.410Z,39.50
2018-10-15T06:24:47.382Z,40.10
2018-10-15T06:25:47.353Z,51.70
2018-10-15T06:26:47.324Z,50.60
2018-10-15T06:27:47.299Z,38.50
2018-10-15T06:28:47.266Z,35.80
2018-10-15T06:29:47.238Z,36.10
2018-10-15T06:30:47.209Z,36.50
2018-10-15T06:31:47.180Z,44.70
2018-10-15T06:32:47.152Z,50.20
2018-10-15T06:33:47.175Z,49.90
2018-10-15T06:34:47.093Z,54.20
2018-10-15T06:35:47.067Z,49.00
2018-10-15T06:36:47.040Z,40.30
2018-10-15T06:37:47.010Z,40.50
2018-10-15T06:38:46.980Z,33.50
2018-10-15T06:39:46.952Z,33.90
2018-10-15T06:40:46.924Z,33.50
2018-10-15T06:41:46.897Z,33.20
2018-10-15T06:42:46.871Z,32.10
2018-10-15T06:43:46.859Z,32.70
2018-10-15T06:44:46.814Z,29.40
2018-10-15T06:45:46.785Z,30.60
2018-10-15T06:46:46.755Z,31.60
2018-10-15T06:47:46.728Z,29.20
2018-10-15T06:48:46.699Z,28.50
2018-10-15T06:49:46.673Z,30.70
2018-10-15T06:50:46.683Z,29.10
2018-10-15T06:51:46.617Z,29.30
2018-10-15T06:52:46.590Z,28.30
2018-10-15T06:53:46.632Z,27.10
2018-10-15T06:54:46.535Z,31.00
2018-10-15T06:55:46.506Z,28.40
2018-10-15T06:56:46.479Z,29.00
2018-10-15T06:57:46.452Z,28.30
2018-10-15T06:58:46.426Z,28.10
2018-10-15T06:59:46.398Z,29.10
2018-10-15T07:00:46.375Z,28.20
2018-10-15T07:01:46.345Z,28.30
2018-10-15T07:02:46.318Z,28.00
2018-10-15T07:03:46.286Z,26.70
2018-10-15T07:04:46.259Z,27.50
2018-10-15T07:05:46.233Z,25.90
2018-10-15T07:06:46.207Z,27.30
2018-10-15T07:07:46.213Z,27.00
2018-10-15T07:08:46.158Z,24.90
2018-10-15T07:09:46.127Z,25.20
2018-10-15T07:10:46.099Z,26.10
2018-10-15T07:11:46.071Z,25.10
2018-10-15T07:12:46.043Z,26.00
2018-10-15T07:13:46.109Z,25.80
2018-10-15T07:14:46.082Z,22.80
2018-10-15T07:15:45.964Z,22.60
2018-10-15T07:16:45.940Z,24.40
2018-10-15T07:17:45.912Z,21.60
2018-10-15T07:18:45.883Z,21.00
2018-10-15T07:19:45.856Z,20.10
2018-10-15T07:20:45.907Z,21.80
2018-10-15T07:21:45.802Z,24.10
2018-10-15T07:22:45.776Z,21.90
2018-10-15T07:23:45.747Z,24.40
2018-10-15T07:24:45.723Z,18.90
2018-10-15T07:25:45.697Z,19.50
2018-10-15T07:26:45.671Z,22.10
2018-10-15T07:27:45.694Z,20.50
2018-10-15T07:28:45.621Z,21.50
2018-10-15T07:29:45.594Z,19.30
2018-10-15T07:30:45.567Z,19.60
2018-10-15T07:31:45.540Z,23.80
2018-10-15T07:32:45.515Z,19.00
2018-10-15T07:33:45.591Z,20.70
2018-10-15T07:34:45.464Z,20.50
2018-10-15T07:35:45.439Z,20.70
2018-10-15T07:36:45.414Z,20.40
2018-10-15T07:37:45.386Z,21.30
2018-10-15T07:38:45.364Z,18.20
2018-10-15T07:39:45.416Z,18.00
2018-10-15T07:40:45.313Z,17.70
2018-10-15T07:41:45.288Z,17.50
2018-10-15T07:42:45.265Z,17.50
2018-10-15T07:43:45.239Z,20.40
2018-10-15T07:44:45.221Z,16.40
2018-10-15T07:45:45.193Z,19.90
2018-10-15T07:46:45.313Z,19.20
2018-10-15T07:47:45.145Z,16.50
2018-10-15T07:48:45.124Z,21.70
2018-10-15T07:49:45.100Z,18.50
2018-10-15T07:50:45.077Z,18.40
2018-10-15T07:51:45.055Z,19.50
2018-10-15T07:52:45.033Z,17.60
2018-10-15T07:53:45.010Z,19.00
2018-10-15T07:54:44.989Z,18.80
2018-10-15T07:55:44.968Z,20.20
2018-10-15T07:56:44.946Z,20.70
2018-10-15T07:57:44.923Z,21.40
2018-10-15T07:58:44.902Z,15.90
2018-10-15T07:59:44.880Z,15.80
2018-10-15T08:00:44.860Z,16.00
2018-10-15T08:01:44.840Z,18.50
2018-10-15T08:02:44.818Z,16.30
2018-10-15T08:03:44.797Z,17.90
2018-10-15T08:04:44.777Z,15.50
2018-10-15T08:05:44.818Z,15.30
2018-10-15T08:06:44.736Z,15.80
2018-10-15T08:07:44.715Z,17.40
2018-10-15T08:08:44.774Z,16.00
2018-10-15T08:09:44.677Z,15.00
2018-10-15T08:10:44.656Z,14.00
2018-10-15T08:11:44.635Z,14.40
2018-10-15T08:12:44.614Z,16.60
2018-10-15T08:13:44.596Z,14.60
2018-10-15T08:14:44.619Z,14.90
2018-10-15T08:15:44.804Z,17.90
2018-10-15T08:16:44.538Z,14.00
2018-10-15T08:17:44.519Z,16.40
2018-10-15T08:18:44.511Z,16.90
2018-10-15T08:19:44.478Z,17.60
2018-10-15T08:20:44.474Z,17.40
2018-10-15T08:21:44.439Z,14.10
2018-10-15T08:22:44.424Z,16.80
2018-10-15T08:23:44.401Z,16.00
2018-10-15T08:24:44.382Z,15.70
2018-10-15T08:25:44.363Z,16.80
2018-10-15T08:26:44.343Z,19.60
2018-10-15T08:27:44.322Z,16.80
2018-10-15T08:28:44.305Z,17.50
2018-10-15T08:29:44.286Z,18.40
2018-10-15T08:30:44.267Z,15.40
2018-10-15T08:31:44.248Z,14.60
2018-10-15T08:32:44.231Z,15.50
2018-10-15T08:33:44.209Z,14.00
2018-10-15T08:34:44.205Z,17.50
2018-10-15T08:35:44.171Z,13.80
2018-10-15T08:36:44.153Z,18.40
2018-10-15T08:37:44.182Z,16.60
2018-10-15T08:38:44.118Z,14.80
2018-10-15T08:39:44.097Z,14.70
2018-10-15T08:40:44.080Z,14.60
2018-10-15T08:41:44.117Z,14.30
2018-10-15T08:42:44.095Z,15.50
2018-10-15T08:43:44.021Z,13.50
2018-10-15T08:44:44.003Z,12.60
2018-10-15T08:45:44.019Z,12.60
2018-10-15T08:46:43.966Z,15.30
2018-10-15T08:47:43.947Z,14.30
2018-10-15T08:48:43.929Z,16.20
2018-10-15T08:49:43.924Z,16.20
2018-10-15T08:50:43.957Z,12.00
2018-10-15T08:51:43.875Z,12.90
2018-10-15T08:52:43.955Z,13.00
2018-10-15T08:53:43.839Z,15.40
2018-10-15T08:54:43.821Z,13.50
2018-10-15T08:55:43.849Z,13.50
2018-10-15T08:56:43.827Z,18.40
2018-10-15T08:57:43.770Z,18.10
2018-10-15T08:58:43.748Z,13.90
2018-10-15T08:59:43.731Z,14.20
2018-10-15T09:00:43.711Z,14.80
2018-10-15T09:01:43.749Z,13.10
2018-10-15T09:02:43.679Z,13.80
2018-10-15T09:03:43.712Z,13.60
2018-10-15T09:04:43.664Z,14.20
2018-10-15T09:05:43.623Z,13.90
2018-10-15T09:06:43.623Z,14.10
2018-10-15T09:07:43.718Z,12.90
2018-10-15T09:08:43.741Z,13.60
2018-10-15T09:09:43.610Z,14.90
2018-10-15T09:10:43.576Z,12.40
2018-10-15T09:11:43.516Z,15.30
2018-10-15T09:12:43.533Z,14.20
2018-10-15T09:13:43.485Z,25.90
2018-10-15T09:14:43.517Z,14.90
2018-10-15T09:15:43.513Z,14.50
2018-10-15T09:16:43.432Z,13.30
2018-10-15T09:17:43.481Z,13.90
2018-10-15T09:18:43.446Z,15.80
2018-10-15T09:19:43.419Z,13.30
2018-10-15T09:20:43.366Z,14.50
2018-10-15T09:21:43.355Z,14.60
2018-10-15T09:22:43.328Z,13.60
2018-10-15T09:23:43.329Z,11.70
2018-10-15T09:24:43.331Z,12.50
2018-10-15T09:25:43.282Z,13.40
2018-10-15T09:26:43.339Z,15.30
2018-10-15T09:27:43.398Z,13.50
2018-10-15T09:28:43.227Z,13.60
2018-10-15T09:29:43.260Z,12.70
2018-10-15T09:30:43.206Z,12.70
2018-10-15T09:31:43.182Z,16.40
2018-10-15T09:32:43.198Z,13.10
2018-10-15T09:33:43.147Z,13.60
2018-10-15T09:34:43.134Z,12.40
2018-10-15T09:35:43.116Z,11.40
2018-10-15T09:36:43.149Z,12.60
2018-10-15T09:37:43.122Z,15.60
2018-10-15T09:38:43.189Z,13.20
2018-10-15T09:39:43.048Z,13.30
2018-10-15T09:40:43.039Z,13.20
2018-10-15T09:41:43.023Z,13.20
2018-10-15T09:42:43.028Z,13.50
2018-10-15T09:43:42.997Z,12.30
2018-10-15T09:44:42.972Z,11.70
2018-10-15T09:45:43.027Z,11.50
2018-10-15T09:46:42.991Z,12.60
2018-10-15T09:47:42.921Z,11.90
2018-10-15T09:48:42.918Z,13.00
2018-10-15T09:49:42.900Z,14.70
2018-10-15T09:50:42.960Z,16.10
2018-10-15T09:51:42.856Z,14.10
2018-10-15T09:52:42.874Z,11.60
2018-10-15T09:53:42.826Z,12.10
2018-10-15T09:54:42.834Z,11.30
2018-10-15T09:55:42.793Z,13.50
2018-10-15T09:56:42.800Z,12.00
2018-10-15T09:57:42.763Z,13.60
2018-10-15T09:58:42.749Z,10.60
2018-10-15T09:59:42.731Z,15.00
2018-10-15T10:00:42.716Z,12.40
2018-10-15T10:01:42.700Z,14.20
2018-10-15T10:02:42.697Z,15.90
2018-10-15T10:03:42.675Z,14.40
2018-10-15T10:04:42.699Z,14.40
2018-10-15T10:05:42.637Z,11.90
2018-10-15T10:06:42.635Z,10.00
2018-10-15T10:07:42.612Z,11.90
2018-10-15T10:08:42.639Z,12.20
2018-10-15T10:09:42.572Z,10.70
2018-10-15T10:10:42.609Z,13.90
2018-10-15T10:11:42.541Z,12.80
2018-10-15T10:12:42.608Z,11.20
2018-10-15T10:13:42.510Z,12.60
2018-10-15T10:14:42.514Z,12.20
2018-10-15T10:15:42.479Z,12.80
2018-10-15T10:16:42.476Z,13.90
2018-10-15T10:17:42.651Z,12.50
2018-10-15T10:18:42.474Z,12.20
2018-10-15T10:19:42.432Z,13.10
2018-10-15T10:20:42.404Z,12.90
2018-10-15T10:21:42.403Z,15.50
2018-10-15T10:22:42.429Z,10.50
2018-10-15T10:23:42.363Z,11.70
2018-10-15T10:24:42.366Z,11.00
2018-10-15T10:25:42.362Z,10.90
2018-10-15T10:26:42.321Z,11.60
2018-10-15T10:27:42.288Z,10.80
2018-10-15T10:28:42.498Z,11.90
2018-10-15T10:29:42.261Z,12.50
2018-10-15T10:30:42.272Z,10.40
2018-10-15T10:31:42.227Z,15.20
2018-10-15T10:32:42.445Z,11.60
2018-10-15T10:33:42.319Z,10.50
2018-10-15T10:34:42.185Z,11.30
2018-10-15T10:35:42.200Z,14.30
2018-10-15T10:36:42.161Z,11.70
2018-10-15T10:37:42.130Z,15.10
2018-10-15T10:38:42.122Z,15.70
2018-10-15T10:39:42.150Z,13.80
2018-10-15T10:40:42.084Z,15.50
2018-10-15T10:41:42.141Z,14.40
2018-10-15T10:42:42.067Z,13.60
2018-10-15T10:43:42.035Z,14.10
2018-10-15T10:44:42.031Z,14.20
2018-10-15T10:45:42.106Z,12.00
2018-10-15T10:46:41.988Z,15.00
2018-10-15T10:47:41.972Z,13.70
2018-10-15T10:48:41.964Z,14.00
2018-10-15T10:49:41.955Z,14.30
2018-10-15T10:50:41.927Z,18.60
2018-10-15T10:51:41.909Z,15.40
2018-10-15T10:52:41.893Z,16.00
2018-10-15T10:53:41.877Z,15.30
2018-10-15T10:54:41.861Z,15.40
2018-10-15T10:55:41.846Z,14.40
2018-10-15T10:56:41.829Z,13.40
2018-10-15T10:57:41.814Z,11.70
2018-10-15T10:58:41.870Z,13.00
2018-10-15T10:59:41.780Z,11.70
2018-10-15T11:00:41.763Z,14.80
2018-10-15T11:01:41.751Z,15.40
2018-10-15T11:02:41.790Z,11.80
2018-10-15T11:03:41.716Z,10.40
2018-10-15T11:04:41.699Z,11.90
2018-10-15T11:05:41.754Z,15.40
2018-10-15T11:06:41.666Z,12.50
2018-10-15T11:07:41.651Z,12.10
2018-10-15T11:08:41.771Z,12.50
2018-10-15T11:09:41.618Z,12.90
2018-10-15T11:10:41.603Z,10.40
2018-10-15T11:11:41.585Z,14.50
2018-10-15T11:12:41.607Z,9.60
2018-10-15T11:13:41.554Z,10.90
2018-10-15T11:14:41.541Z,11.50
2018-10-15T11:15:41.521Z,13.50
2018-10-15T11:16:41.504Z,17.50
2018-10-15T11:17:41.490Z,11.80
2018-10-15T11:18:41.600Z,12.60
2018-10-15T11:19:41.456Z,13.00
2018-10-15T11:20:41.441Z,13.20
2018-10-15T11:21:41.424Z,10.60
2018-10-15T11:22:41.418Z,13.10
2018-10-15T11:23:41.394Z,9.80
2018-10-15T11:24:41.378Z,13.40
2018-10-15T11:25:41.362Z,11.20
2018-10-15T11:26:41.347Z,11.80
2018-10-15T11:27:41.329Z,11.00
2018-10-15T11:28:41.314Z,11.50
2018-10-15T11:29:41.329Z,13.50
2018-10-15T11:30:41.284Z,10.60
2018-10-15T11:31:41.268Z,12.90
2018-10-15T11:32:41.252Z,13.60
2018-10-15T11:33:41.234Z,12.50
2018-10-15T11:34:41.299Z,10.80
2018-10-15T11:35:41.203Z,13.90
2018-10-15T11:36:41.190Z,12.10
2018-10-15T11:37:41.175Z,15.60
2018-10-15T11:38:41.157Z,11.50
2018-10-15T11:39:41.139Z,11.80
2018-10-15T11:40:41.126Z,12.60
2018-10-15T11:41:41.108Z,13.20
2018-10-15T11:42:41.094Z,10.00
2018-10-15T11:43:41.106Z,12.50
2018-10-15T11:44:41.061Z,11.50
2018-10-15T11:45:41.048Z,10.10
2018-10-15T11:46:41.077Z,11.20
2018-10-15T11:47:41.017Z,10.00
2018-10-15T11:48:40.999Z,10.60
2018-10-15T11:49:41.004Z,11.40
2018-10-15T11:50:40.968Z,13.80
2018-10-15T11:51:40.951Z,11.90
2018-10-15T11:52:40.936Z,11.50
2018-10-15T11:53:40.975Z,9.10
2018-10-15T11:54:40.905Z,8.20
2018-10-15T11:55:40.893Z,12.40
2018-10-15T11:56:40.873Z,11.70
2018-10-15T11:57:40.858Z,9.60
2018-10-15T11:58:40.870Z,10.40
2018-10-15T11:59:40.824Z,10.90
2018-10-15T12:00:40.808Z,12.70
2018-10-15T12:01:40.793Z,10.80
2018-10-15T12:02:40.859Z,9.70
2018-10-15T12:03:40.760Z,12.20
2018-10-15T12:04:40.745Z,15.00
2018-10-15T12:05:40.730Z,10.00
2018-10-15T12:06:40.715Z,13.90
2018-10-15T12:07:40.697Z,10.80
2018-10-15T12:08:40.680Z,13.60
2018-10-15T12:09:40.666Z,12.00
2018-10-15T12:10:40.650Z,14.30
2018-10-15T12:11:40.633Z,12.10
2018-10-15T12:12:40.623Z,11.70
2018-10-15T12:13:40.602Z,12.10
2018-10-15T12:14:40.585Z,10.40
2018-10-15T12:15:40.573Z,14.10
2018-10-15T12:16:40.564Z,9.90
2018-10-15T12:17:40.541Z,10.80
2018-10-15T12:18:40.523Z,8.20
2018-10-15T12:19:40.509Z,12.40
2018-10-15T12:20:40.491Z,13.10
2018-10-15T12:21:40.476Z,8.70
2018-10-15T12:22:40.503Z,15.50
2018-10-15T12:23:40.444Z,11.30
2018-10-15T12:24:40.427Z,12.50
2018-10-15T12:25:40.412Z,10.20
2018-10-15T12:26:40.396Z,11.10
2018-10-15T12:27:40.381Z,10.10
2018-10-15T12:28:40.364Z,9.00
2018-10-15T12:29:40.407Z,13.60
2018-10-15T12:30:40.334Z,13.50
2018-10-15T12:31:40.317Z,11.10
2018-10-15T12:32:40.299Z,15.10
2018-10-15T12:33:40.285Z,14.60
2018-10-15T12:34:40.269Z,9.90
2018-10-15T12:35:40.256Z,12.40
2018-10-15T12:36:40.239Z,13.20
2018-10-15T12:37:40.223Z,12.90
2018-10-15T12:38:40.206Z,13.80
2018-10-15T12:39:40.191Z,10.40
2018-10-15T12:40:40.175Z,13.70
2018-10-15T12:41:40.166Z,11.30
2018-10-15T12:42:40.151Z,8.70
2018-10-15T12:43:40.127Z,10.20
2018-10-15T12:44:40.122Z,8.50
2018-10-15T12:45:40.097Z,11.20
2018-10-15T12:46:40.082Z,12.90
2018-10-15T12:47:40.144Z,11.20
2018-10-15T12:48:40.049Z,13.50
2018-10-15T12:49:40.032Z,13.20
2018-10-15T12:50:40.020Z,11.70
2018-10-15T12:51:40.001Z,12.10
2018-10-15T12:52:39.994Z,13.90
2018-10-15T12:53:40.121Z,10.10